AIJ014 MMTJ-MMUN
Flight info
| Callsign | AIJ014 |
|---|---|
| Flight time | 4h 2m |
| Altitude | 39000 |
| Route | TEVIR2B TEVIR DCT URSEV DCT AVAPA DCT CUU UJ2 NOTAL DCT VESKO UT11 URTEL UT34 VOMAR VOMAR1A |
| Aircraft | A20N/M-SDE2E3FGHIRWXY/LB1 |
Departure
| Time | 2026-04-20 18:58 |
|---|---|
| Airport | General Abelardo L. Rodriguez International Airport (MMTJ) |
Arrival
| Time | 2026-04-20 23:00 |
|---|---|
| Airport | Cancún International Airport (MMUN) |
| Time | Latitude | Longitude | Altitude | Speed | Heading |
|---|---|---|---|---|---|
| 2026-04-20 18:36 | 32.54521 | -116.97395 | 483 ft | 0 kts | 303° |
| 2026-04-20 18:48 | 32.54515 | -116.97384 | 484 ft | 3 kts | 305° |
| 2026-04-20 18:48 | 32.54503 | -116.97365 | 475 ft | 3 kts | 308° |
| 2026-04-20 18:49 | 32.54490 | -116.97346 | 484 ft | 3 kts | 310° |
| 2026-04-20 18:49 | 32.54477 | -116.97328 | 481 ft | 3 kts | 312° |
| 2026-04-20 18:49 | 32.54463 | -116.97310 | 480 ft | 3 kts | 311° |
| 2026-04-20 18:49 | 32.54450 | -116.97292 | 482 ft | 3 kts | 300° |
| 2026-04-20 18:50 | 32.54444 | -116.97276 | 476 ft | 1 kts | 279° |
| 2026-04-20 18:52 | 32.54446 | -116.97287 | 481 ft | 4 kts | 279° |
| 2026-04-20 18:52 | 32.54432 | -116.97323 | 481 ft | 6 kts | 227° |
| 2026-04-20 18:53 | 32.54392 | -116.97354 | 481 ft | 7 kts | 227° |
| 2026-04-20 18:53 | 32.54366 | -116.97407 | 483 ft | 7 kts | 222° |
| 2026-04-20 18:53 | 32.54307 | -116.97413 | 487 ft | 10 kts | 175° |
| 2026-04-20 18:53 | 32.54240 | -116.97356 | 480 ft | 15 kts | 128° |
| 2026-04-20 18:54 | 32.54166 | -116.97247 | 486 ft | 19 kts | 128° |
| 2026-04-20 18:54 | 32.54117 | -116.97094 | 484 ft | 22 kts | 97° |
| 2026-04-20 18:54 | 32.54093 | -116.96896 | 474 ft | 26 kts | 99° |
| 2026-04-20 18:54 | 32.54059 | -116.96682 | 482 ft | 27 kts | 100° |
| 2026-04-20 18:55 | 32.54027 | -116.96451 | 482 ft | 28 kts | 97° |
| 2026-04-20 18:55 | 32.53998 | -116.96229 | 480 ft | 29 kts | 99° |
| 2026-04-20 18:55 | 32.53965 | -116.95985 | 475 ft | 31 kts | 97° |
| 2026-04-20 18:55 | 32.53935 | -116.95718 | 472 ft | 35 kts | 99° |
| 2026-04-20 18:56 | 32.53936 | -116.95507 | 472 ft | 17 kts | 66° |
| 2026-04-20 18:56 | 32.53914 | -116.95489 | 468 ft | 8 kts | 218° |
| 2026-04-20 18:56 | 32.53910 | -116.95521 | 472 ft | 0 kts | 279° |
| 2026-04-20 18:57 | 32.53936 | -116.95719 | 472 ft | 59 kts | 279° |
| 2026-04-20 18:58 | 32.54032 | -116.96458 | 483 ft | 119 kts | 279° |
| 2026-04-20 18:58 | 32.54182 | -116.97604 | 505 ft | 163 kts | 277° |
| 2026-04-20 18:58 | 32.54358 | -116.98989 | 877 ft | 177 kts | 271° |
| 2026-04-20 18:58 | 32.54087 | -117.00510 | 1168 ft | 202 kts | 249° |
| 2026-04-20 18:59 | 32.53541 | -117.02151 | 1498 ft | 226 kts | 249° |
| 2026-04-20 18:59 | 32.52940 | -117.03951 | 2007 ft | 243 kts | 250° |
| 2026-04-20 18:59 | 32.52260 | -117.05900 | 2253 ft | 272 kts | 246° |
| 2026-04-20 18:59 | 32.51567 | -117.08090 | 2522 ft | 298 kts | 253° |
| 2026-04-20 19:00 | 32.50598 | -117.10288 | 3312 ft | 303 kts | 228° |
| 2026-04-20 19:00 | 32.48963 | -117.11737 | 4660 ft | 287 kts | 201° |
| 2026-04-20 19:00 | 32.47070 | -117.12178 | 5981 ft | 276 kts | 177° |
| 2026-04-20 19:00 | 32.45226 | -117.11631 | 6917 ft | 278 kts | 152° |
| 2026-04-20 19:01 | 32.43743 | -117.10147 | 7720 ft | 285 kts | 127° |
| 2026-04-20 19:01 | 32.42925 | -117.07995 | 8541 ft | 292 kts | 106° |
| 2026-04-20 19:01 | 32.42463 | -117.05633 | 9383 ft | 297 kts | 104° |
| 2026-04-20 19:01 | 32.41978 | -117.03267 | 10178 ft | 302 kts | 107° |
| 2026-04-20 19:02 | 32.41392 | -117.00867 | 10931 ft | 307 kts | 109° |
| 2026-04-20 19:02 | 32.40726 | -116.98448 | 11680 ft | 311 kts | 110° |
| 2026-04-20 19:02 | 32.40014 | -116.96005 | 12436 ft | 316 kts | 111° |
| 2026-04-20 19:02 | 32.39273 | -116.93538 | 13188 ft | 321 kts | 112° |
| 2026-04-20 19:03 | 32.38513 | -116.91037 | 13927 ft | 325 kts | 112° |
| 2026-04-20 19:03 | 32.37743 | -116.88508 | 14589 ft | 329 kts | 112° |
| 2026-04-20 19:03 | 32.36965 | -116.85947 | 15273 ft | 332 kts | 112° |
| 2026-04-20 19:03 | 32.36182 | -116.83368 | 15938 ft | 336 kts | 112° |
| 2026-04-20 19:04 | 32.35384 | -116.80737 | 16542 ft | 341 kts | 112° |
| 2026-04-20 19:04 | 32.34576 | -116.78093 | 17277 ft | 343 kts | 114° |
| 2026-04-20 19:04 | 32.33548 | -116.75546 | 17926 ft | 344 kts | 122° |
| 2026-04-20 19:04 | 32.32254 | -116.73229 | 18524 ft | 347 kts | 127° |
| 2026-04-20 19:05 | 32.30856 | -116.70838 | 19071 ft | 351 kts | 127° |
| 2026-04-20 19:05 | 32.29470 | -116.68449 | 19643 ft | 354 kts | 127° |
| 2026-04-20 19:05 | 32.28072 | -116.66034 | 20179 ft | 358 kts | 126° |
| 2026-04-20 19:05 | 32.26659 | -116.63592 | 20715 ft | 361 kts | 126° |
| 2026-04-20 19:06 | 32.25238 | -116.61135 | 21271 ft | 364 kts | 126° |
| 2026-04-20 19:06 | 32.23799 | -116.58652 | 21822 ft | 368 kts | 126° |
| 2026-04-20 19:06 | 32.22342 | -116.56139 | 22343 ft | 372 kts | 126° |
| 2026-04-20 19:06 | 32.20871 | -116.53601 | 22856 ft | 376 kts | 126° |
| 2026-04-20 19:07 | 32.19504 | -116.50949 | 23386 ft | 381 kts | 119° |
| 2026-04-20 19:07 | 32.18376 | -116.48150 | 23843 ft | 385 kts | 117° |
| 2026-04-20 19:07 | 32.17220 | -116.45250 | 24297 ft | 387 kts | 117° |
| 2026-04-20 19:07 | 32.16066 | -116.42369 | 24744 ft | 389 kts | 117° |
| 2026-04-20 19:08 | 32.14917 | -116.39512 | 25169 ft | 392 kts | 117° |
| 2026-04-20 19:08 | 32.12556 | -116.33657 | 26020 ft | 397 kts | 117° |
| 2026-04-20 19:08 | 32.11365 | -116.30707 | 26433 ft | 400 kts | 117° |
| 2026-04-20 19:09 | 32.10163 | -116.27732 | 26840 ft | 403 kts | 117° |
| 2026-04-20 19:09 | 32.08954 | -116.24741 | 27245 ft | 405 kts | 117° |
| 2026-04-20 19:09 | 32.07736 | -116.21730 | 27639 ft | 408 kts | 117° |
| 2026-04-20 19:09 | 32.06507 | -116.18694 | 28022 ft | 410 kts | 118° |
| 2026-04-20 19:10 | 32.05271 | -116.15644 | 28404 ft | 413 kts | 118° |
| 2026-04-20 19:10 | 32.04029 | -116.12582 | 28769 ft | 415 kts | 118° |
| 2026-04-20 19:10 | 32.02779 | -116.09503 | 29133 ft | 417 kts | 118° |
| 2026-04-20 19:10 | 32.01521 | -116.06408 | 29495 ft | 420 kts | 118° |
| 2026-04-20 19:11 | 32.00272 | -116.03335 | 29838 ft | 422 kts | 118° |
| 2026-04-20 19:11 | 31.98994 | -116.00199 | 30165 ft | 425 kts | 118° |
| 2026-04-20 19:11 | 31.97712 | -115.97050 | 30442 ft | 428 kts | 118° |
| 2026-04-20 19:11 | 31.96419 | -115.93879 | 30716 ft | 430 kts | 118° |
| 2026-04-20 19:12 | 31.95119 | -115.90694 | 31034 ft | 432 kts | 118° |
| 2026-04-20 19:12 | 31.93816 | -115.87503 | 31381 ft | 432 kts | 118° |
| 2026-04-20 19:12 | 31.92513 | -115.84316 | 31711 ft | 432 kts | 118° |
| 2026-04-20 19:12 | 31.91195 | -115.81102 | 31850 ft | 438 kts | 119° |
| 2026-04-20 19:13 | 31.89673 | -115.77974 | 31922 ft | 443 kts | 126° |
| 2026-04-20 19:13 | 31.86217 | -115.71824 | 32068 ft | 457 kts | 126° |
| 2026-04-20 19:13 | 31.84468 | -115.68691 | 32295 ft | 460 kts | 126° |
| 2026-04-20 19:14 | 31.82711 | -115.65542 | 32585 ft | 460 kts | 126° |
| 2026-04-20 19:14 | 31.80973 | -115.62433 | 32875 ft | 461 kts | 126° |
| 2026-04-20 19:14 | 31.79210 | -115.59281 | 33147 ft | 462 kts | 126° |
| 2026-04-20 19:14 | 31.77443 | -115.56126 | 33438 ft | 462 kts | 126° |
| 2026-04-20 19:15 | 31.75673 | -115.52971 | 33718 ft | 462 kts | 126° |
| 2026-04-20 19:15 | 31.73898 | -115.49810 | 33984 ft | 463 kts | 126° |
| 2026-04-20 19:15 | 31.72119 | -115.46644 | 34234 ft | 463 kts | 126° |
| 2026-04-20 19:15 | 31.70347 | -115.43491 | 34506 ft | 462 kts | 126° |
| 2026-04-20 19:16 | 31.68584 | -115.40352 | 34766 ft | 462 kts | 126° |
| 2026-04-20 19:16 | 31.66802 | -115.37194 | 34933 ft | 463 kts | 127° |
| 2026-04-20 19:16 | 31.65071 | -115.33990 | 35121 ft | 465 kts | 122° |
| 2026-04-20 19:16 | 31.63667 | -115.30617 | 35333 ft | 467 kts | 114° |
| 2026-04-20 19:17 | 31.62589 | -115.27012 | 35540 ft | 469 kts | 109° |
| 2026-04-20 19:17 | 31.61625 | -115.23352 | 35752 ft | 469 kts | 109° |
| 2026-04-20 19:17 | 31.60650 | -115.19699 | 35951 ft | 469 kts | 109° |
| 2026-04-20 19:17 | 31.59673 | -115.16056 | 36165 ft | 468 kts | 109° |
| 2026-04-20 19:18 | 31.58697 | -115.12405 | 36376 ft | 468 kts | 109° |
| 2026-04-20 19:18 | 31.57715 | -115.08759 | 36528 ft | 469 kts | 110° |
| 2026-04-20 19:18 | 31.57062 | -115.06342 | 36625 ft | 469 kts | 110° |
| 2026-04-20 19:18 | 31.55764 | -115.01511 | 36846 ft | 469 kts | 109° |
| 2026-04-20 19:19 | 31.54786 | -114.97866 | 37019 ft | 469 kts | 109° |
| 2026-04-20 19:19 | 31.53804 | -114.94218 | 37182 ft | 469 kts | 110° |
| 2026-04-20 19:19 | 31.52822 | -114.90579 | 37345 ft | 469 kts | 110° |
| 2026-04-20 19:19 | 31.51836 | -114.86931 | 37488 ft | 469 kts | 110° |
| 2026-04-20 19:20 | 31.51181 | -114.84515 | 37584 ft | 469 kts | 110° |
| 2026-04-20 19:20 | 31.50191 | -114.80861 | 37735 ft | 469 kts | 110° |
| 2026-04-20 19:20 | 31.49203 | -114.77223 | 37871 ft | 469 kts | 110° |
| 2026-04-20 19:20 | 31.48213 | -114.73582 | 38001 ft | 469 kts | 110° |
| 2026-04-20 19:21 | 31.47221 | -114.69937 | 38131 ft | 469 kts | 110° |
| 2026-04-20 19:21 | 31.46229 | -114.66299 | 38250 ft | 469 kts | 110° |
| 2026-04-20 19:21 | 31.45235 | -114.62657 | 38369 ft | 469 kts | 110° |
| 2026-04-20 19:22 | 31.43243 | -114.55374 | 38563 ft | 470 kts | 110° |
| 2026-04-20 19:22 | 31.42245 | -114.51733 | 38666 ft | 470 kts | 110° |
| 2026-04-20 19:22 | 31.41245 | -114.48085 | 38753 ft | 470 kts | 110° |
| 2026-04-20 19:23 | 31.39241 | -114.40795 | 38883 ft | 471 kts | 110° |
| 2026-04-20 19:23 | 31.37246 | -114.33553 | 38998 ft | 471 kts | 110° |
| 2026-04-20 19:24 | 31.35228 | -114.26246 | 38996 ft | 473 kts | 110° |
| 2026-04-20 19:24 | 31.33191 | -114.18890 | 38993 ft | 478 kts | 110° |
| 2026-04-20 19:25 | 31.31129 | -114.11461 | 38988 ft | 482 kts | 110° |
| 2026-04-20 19:25 | 31.29042 | -114.03960 | 38989 ft | 487 kts | 110° |
| 2026-04-20 19:26 | 31.26927 | -113.96378 | 38992 ft | 492 kts | 110° |
| 2026-04-20 19:26 | 31.24791 | -113.88743 | 39003 ft | 497 kts | 110° |
| 2026-04-20 19:27 | 31.22626 | -113.81018 | 39003 ft | 502 kts | 110° |
| 2026-04-20 19:27 | 31.20460 | -113.73312 | 39003 ft | 502 kts | 110° |
| 2026-04-20 19:28 | 31.18270 | -113.65539 | 39007 ft | 502 kts | 110° |
| 2026-04-20 19:28 | 31.16090 | -113.57823 | 39007 ft | 503 kts | 110° |
| 2026-04-20 19:29 | 31.13892 | -113.50064 | 39008 ft | 503 kts | 110° |
| 2026-04-20 19:29 | 31.11688 | -113.42303 | 39009 ft | 504 kts | 110° |
| 2026-04-20 19:30 | 31.09478 | -113.34542 | 39013 ft | 504 kts | 110° |
| 2026-04-20 19:30 | 31.07264 | -113.26784 | 39007 ft | 504 kts | 110° |
| 2026-04-20 19:31 | 31.05035 | -113.18996 | 39001 ft | 505 kts | 110° |
| 2026-04-20 19:31 | 31.02806 | -113.11229 | 39000 ft | 505 kts | 110° |
| 2026-04-20 19:32 | 31.00572 | -113.03462 | 39001 ft | 506 kts | 110° |
| 2026-04-20 19:32 | 30.98333 | -112.95698 | 38995 ft | 506 kts | 110° |
| 2026-04-20 19:33 | 30.96096 | -112.87962 | 38994 ft | 507 kts | 110° |
| 2026-04-20 19:33 | 30.93836 | -112.80166 | 38987 ft | 507 kts | 111° |
| 2026-04-20 19:34 | 30.91574 | -112.72380 | 38984 ft | 508 kts | 111° |
| 2026-04-20 19:34 | 30.89302 | -112.64582 | 38986 ft | 508 kts | 111° |
| 2026-04-20 19:35 | 30.87025 | -112.56787 | 38980 ft | 509 kts | 111° |
| 2026-04-20 19:35 | 30.84757 | -112.49042 | 38976 ft | 509 kts | 111° |
| 2026-04-20 19:36 | 30.82465 | -112.41233 | 38976 ft | 510 kts | 111° |
| 2026-04-20 19:36 | 30.80165 | -112.33418 | 38966 ft | 510 kts | 111° |
| 2026-04-20 19:37 | 30.77861 | -112.25605 | 38966 ft | 511 kts | 111° |
| 2026-04-20 19:37 | 30.75549 | -112.17789 | 38964 ft | 511 kts | 111° |
| 2026-04-20 19:38 | 30.73229 | -112.09966 | 38954 ft | 512 kts | 111° |
| 2026-04-20 19:38 | 30.70906 | -112.02149 | 38953 ft | 512 kts | 111° |
| 2026-04-20 19:39 | 30.68587 | -111.94368 | 38953 ft | 513 kts | 111° |
| 2026-04-20 19:39 | 30.66246 | -111.86532 | 38951 ft | 514 kts | 111° |
| 2026-04-20 19:40 | 30.63899 | -111.78695 | 38950 ft | 514 kts | 111° |
| 2026-04-20 19:40 | 30.61547 | -111.70852 | 38944 ft | 515 kts | 111° |
| 2026-04-20 19:41 | 30.59182 | -111.63001 | 38948 ft | 515 kts | 111° |
| 2026-04-20 19:41 | 30.56809 | -111.55139 | 38954 ft | 516 kts | 111° |
| 2026-04-20 19:42 | 30.54429 | -111.47272 | 38951 ft | 516 kts | 111° |
| 2026-04-20 19:42 | 30.52045 | -111.39409 | 38950 ft | 517 kts | 111° |
| 2026-04-20 19:43 | 30.49654 | -111.31542 | 38952 ft | 517 kts | 111° |
| 2026-04-20 19:43 | 30.47258 | -111.23680 | 38956 ft | 518 kts | 111° |
| 2026-04-20 19:44 | 30.44856 | -111.15819 | 38960 ft | 518 kts | 111° |
| 2026-04-20 19:44 | 30.42459 | -111.07991 | 38955 ft | 518 kts | 112° |
| 2026-04-20 19:45 | 30.40043 | -111.00119 | 38960 ft | 519 kts | 112° |
| 2026-04-20 19:45 | 30.37621 | -110.92249 | 38964 ft | 519 kts | 112° |
| 2026-04-20 19:46 | 30.35191 | -110.84371 | 38968 ft | 519 kts | 112° |
| 2026-04-20 19:46 | 30.32762 | -110.76514 | 38969 ft | 518 kts | 112° |
| 2026-04-20 19:47 | 30.30325 | -110.68651 | 38970 ft | 519 kts | 112° |
| 2026-04-20 19:47 | 30.27887 | -110.60806 | 38970 ft | 519 kts | 112° |
| 2026-04-20 19:48 | 30.25433 | -110.52928 | 38981 ft | 519 kts | 112° |
| 2026-04-20 19:48 | 30.22992 | -110.45109 | 38983 ft | 520 kts | 112° |
| 2026-04-20 19:49 | 30.20535 | -110.37258 | 38984 ft | 519 kts | 112° |
| 2026-04-20 19:49 | 30.18071 | -110.29404 | 38982 ft | 519 kts | 112° |
| 2026-04-20 19:50 | 30.15601 | -110.21549 | 38985 ft | 519 kts | 112° |
| 2026-04-20 19:50 | 30.13126 | -110.13698 | 38980 ft | 519 kts | 112° |
| 2026-04-20 19:51 | 30.10650 | -110.05865 | 38982 ft | 519 kts | 112° |
| 2026-04-20 19:51 | 30.08171 | -109.98034 | 38982 ft | 520 kts | 112° |
| 2026-04-20 19:52 | 30.05685 | -109.90205 | 38986 ft | 521 kts | 112° |
| 2026-04-20 19:52 | 30.03182 | -109.82341 | 39003 ft | 521 kts | 112° |
| 2026-04-20 19:53 | 30.00681 | -109.74492 | 38998 ft | 522 kts | 112° |
| 2026-04-20 19:53 | 29.98186 | -109.66674 | 38994 ft | 522 kts | 112° |
| 2026-04-20 19:54 | 29.95672 | -109.58816 | 38994 ft | 522 kts | 113° |
| 2026-04-20 19:54 | 29.93067 | -109.51003 | 38970 ft | 521 kts | 113° |
| 2026-04-20 19:55 | 29.90569 | -109.43223 | 38970 ft | 517 kts | 113° |
| 2026-04-20 19:55 | 29.88051 | -109.35417 | 38969 ft | 520 kts | 113° |
| 2026-04-20 19:56 | 29.85940 | -109.28928 | 38979 ft | 520 kts | 113° |
| 2026-04-20 19:56 | 29.82973 | -109.19862 | 38982 ft | 520 kts | 113° |
| 2026-04-20 19:57 | 29.80399 | -109.12018 | 38986 ft | 520 kts | 113° |
| 2026-04-20 19:57 | 29.77852 | -109.04279 | 38990 ft | 521 kts | 113° |
| 2026-04-20 19:58 | 29.75284 | -108.96491 | 39005 ft | 521 kts | 113° |
| 2026-04-20 19:58 | 29.72697 | -108.88664 | 39013 ft | 521 kts | 114° |
| 2026-04-20 19:59 | 29.70114 | -108.80867 | 39025 ft | 522 kts | 114° |
| 2026-04-20 19:59 | 29.67522 | -108.73067 | 39022 ft | 521 kts | 114° |
| 2026-04-20 20:00 | 29.64944 | -108.65317 | 39033 ft | 519 kts | 114° |
| 2026-04-20 20:00 | 29.62371 | -108.57600 | 39032 ft | 520 kts | 113° |
| 2026-04-20 20:01 | 29.59777 | -108.49831 | 39046 ft | 520 kts | 114° |
| 2026-04-20 20:01 | 29.57173 | -108.42068 | 39064 ft | 520 kts | 114° |
| 2026-04-20 20:02 | 29.54566 | -108.34309 | 39053 ft | 521 kts | 114° |
| 2026-04-20 20:02 | 29.51955 | -108.26551 | 39060 ft | 521 kts | 114° |
| 2026-04-20 20:03 | 29.49336 | -108.18785 | 39067 ft | 522 kts | 114° |
| 2026-04-20 20:03 | 29.46714 | -108.11028 | 39063 ft | 521 kts | 114° |
| 2026-04-20 20:04 | 29.44084 | -108.03265 | 39056 ft | 521 kts | 114° |
| 2026-04-20 20:04 | 29.41472 | -107.95573 | 39052 ft | 521 kts | 114° |
| 2026-04-20 20:05 | 29.38833 | -107.87819 | 39053 ft | 521 kts | 114° |
| 2026-04-20 20:05 | 29.36194 | -107.80081 | 39044 ft | 521 kts | 114° |
| 2026-04-20 20:06 | 29.33550 | -107.72346 | 39040 ft | 521 kts | 115° |
| 2026-04-20 20:06 | 29.30902 | -107.64615 | 39030 ft | 521 kts | 115° |
| 2026-04-20 20:07 | 29.28699 | -107.58199 | 39023 ft | 520 kts | 115° |
| 2026-04-20 20:07 | 29.26047 | -107.50488 | 39001 ft | 520 kts | 115° |
| 2026-04-20 20:08 | 29.23399 | -107.42804 | 39003 ft | 518 kts | 115° |
| 2026-04-20 20:08 | 29.20739 | -107.35109 | 39006 ft | 520 kts | 115° |
| 2026-04-20 20:09 | 29.18087 | -107.27450 | 39009 ft | 521 kts | 115° |
| 2026-04-20 20:09 | 29.15411 | -107.19737 | 39024 ft | 522 kts | 115° |
| 2026-04-20 20:10 | 29.12729 | -107.12024 | 39024 ft | 522 kts | 115° |
| 2026-04-20 20:10 | 29.10038 | -107.04303 | 39030 ft | 523 kts | 115° |
| 2026-04-20 20:11 | 29.07335 | -106.96562 | 39034 ft | 523 kts | 115° |
| 2026-04-20 20:11 | 29.04634 | -106.88845 | 39035 ft | 523 kts | 115° |
| 2026-04-20 20:12 | 29.01931 | -106.81138 | 39037 ft | 523 kts | 115° |
| 2026-04-20 20:12 | 28.99220 | -106.73425 | 39028 ft | 522 kts | 115° |
| 2026-04-20 20:13 | 28.95151 | -106.61880 | 39027 ft | 523 kts | 115° |
| 2026-04-20 20:13 | 28.92450 | -106.54235 | 39017 ft | 523 kts | 115° |
| 2026-04-20 20:14 | 28.89724 | -106.46537 | 39016 ft | 523 kts | 115° |
| 2026-04-20 20:14 | 28.86997 | -106.38854 | 39010 ft | 522 kts | 115° |
| 2026-04-20 20:15 | 28.84260 | -106.31158 | 39018 ft | 522 kts | 115° |
| 2026-04-20 20:15 | 28.81532 | -106.23504 | 39060 ft | 521 kts | 115° |
| 2026-04-20 20:16 | 28.78808 | -106.15879 | 39107 ft | 521 kts | 115° |
| 2026-04-20 20:16 | 28.76070 | -106.08226 | 39159 ft | 520 kts | 115° |
| 2026-04-20 20:17 | 28.73333 | -106.00583 | 39178 ft | 520 kts | 115° |
| 2026-04-20 20:17 | 28.70599 | -105.92991 | 39175 ft | 519 kts | 116° |
| 2026-04-20 20:18 | 28.67784 | -105.85424 | 39166 ft | 519 kts | 116° |
| 2026-04-20 20:18 | 28.64961 | -105.77852 | 39110 ft | 519 kts | 116° |
| 2026-04-20 20:19 | 28.62148 | -105.70296 | 39055 ft | 519 kts | 116° |
| 2026-04-20 20:19 | 28.59333 | -105.62740 | 38999 ft | 518 kts | 116° |
| 2026-04-20 20:20 | 28.56513 | -105.55188 | 38951 ft | 519 kts | 116° |
| 2026-04-20 20:20 | 28.53685 | -105.47630 | 38959 ft | 519 kts | 116° |
| 2026-04-20 20:21 | 28.50871 | -105.40129 | 38960 ft | 519 kts | 116° |
| 2026-04-20 20:21 | 28.48034 | -105.32583 | 38964 ft | 519 kts | 116° |
| 2026-04-20 20:22 | 28.45187 | -105.25023 | 38964 ft | 520 kts | 116° |
| 2026-04-20 20:22 | 28.42335 | -105.17464 | 38970 ft | 520 kts | 116° |
| 2026-04-20 20:23 | 28.39477 | -105.09909 | 38974 ft | 519 kts | 116° |
| 2026-04-20 20:23 | 28.36642 | -105.02424 | 38978 ft | 519 kts | 116° |
| 2026-04-20 20:24 | 28.33784 | -104.94896 | 38984 ft | 519 kts | 117° |
| 2026-04-20 20:24 | 28.30918 | -104.87363 | 38985 ft | 519 kts | 117° |
| 2026-04-20 20:25 | 28.28055 | -104.79849 | 38993 ft | 518 kts | 117° |
| 2026-04-20 20:25 | 28.25191 | -104.72348 | 38989 ft | 517 kts | 117° |
| 2026-04-20 20:26 | 28.22319 | -104.64854 | 38987 ft | 517 kts | 117° |
| 2026-04-20 20:26 | 28.19467 | -104.57415 | 38986 ft | 517 kts | 117° |
| 2026-04-20 20:27 | 28.16599 | -104.49939 | 38991 ft | 516 kts | 117° |
| 2026-04-20 20:27 | 28.13729 | -104.42481 | 38992 ft | 516 kts | 117° |
| 2026-04-20 20:28 | 28.10854 | -104.35025 | 38993 ft | 516 kts | 117° |
| 2026-04-20 20:28 | 28.07992 | -104.27616 | 38996 ft | 516 kts | 117° |
| 2026-04-20 20:29 | 28.05113 | -104.20179 | 38999 ft | 515 kts | 117° |
| 2026-04-20 20:29 | 28.02227 | -104.12738 | 39000 ft | 515 kts | 117° |
| 2026-04-20 20:30 | 27.99342 | -104.05316 | 39004 ft | 515 kts | 117° |
| 2026-04-20 20:30 | 27.96456 | -103.97902 | 39007 ft | 514 kts | 117° |
| 2026-04-20 20:31 | 27.93569 | -103.90501 | 39007 ft | 514 kts | 117° |
| 2026-04-20 20:31 | 27.90677 | -103.83102 | 39010 ft | 514 kts | 117° |
| 2026-04-20 20:32 | 27.87797 | -103.75748 | 39013 ft | 513 kts | 117° |
| 2026-04-20 20:32 | 27.84907 | -103.68382 | 39017 ft | 513 kts | 117° |
| 2026-04-20 20:33 | 27.82012 | -103.61017 | 39012 ft | 512 kts | 117° |
| 2026-04-20 20:33 | 27.79116 | -103.53663 | 39011 ft | 512 kts | 117° |
| 2026-04-20 20:34 | 27.76220 | -103.46323 | 39013 ft | 511 kts | 117° |
| 2026-04-20 20:34 | 27.73324 | -103.38995 | 39014 ft | 511 kts | 117° |
| 2026-04-20 20:35 | 27.70443 | -103.31720 | 39015 ft | 510 kts | 118° |
| 2026-04-20 20:35 | 27.67547 | -103.24421 | 39014 ft | 510 kts | 118° |
| 2026-04-20 20:36 | 27.64639 | -103.17106 | 39014 ft | 509 kts | 118° |
| 2026-04-20 20:36 | 27.61736 | -103.09814 | 39016 ft | 509 kts | 118° |
| 2026-04-20 20:37 | 27.58830 | -103.02530 | 39016 ft | 509 kts | 118° |
| 2026-04-20 20:37 | 27.55924 | -102.95260 | 39016 ft | 508 kts | 118° |
| 2026-04-20 20:38 | 27.53016 | -102.87997 | 39027 ft | 508 kts | 118° |
| 2026-04-20 20:38 | 27.50125 | -102.80791 | 39039 ft | 508 kts | 118° |
| 2026-04-20 20:39 | 27.47209 | -102.73535 | 39049 ft | 508 kts | 118° |
| 2026-04-20 20:39 | 27.44293 | -102.66291 | 39056 ft | 508 kts | 118° |
| 2026-04-20 20:40 | 27.41369 | -102.59044 | 39066 ft | 508 kts | 118° |
| 2026-04-20 20:40 | 27.38441 | -102.51797 | 39075 ft | 507 kts | 118° |
| 2026-04-20 20:41 | 27.35521 | -102.44583 | 39074 ft | 507 kts | 119° |
| 2026-04-20 20:41 | 27.32613 | -102.37410 | 39085 ft | 507 kts | 119° |
| 2026-04-20 20:42 | 27.29681 | -102.30194 | 39094 ft | 507 kts | 119° |
| 2026-04-20 20:42 | 27.26743 | -102.22972 | 39094 ft | 507 kts | 119° |
| 2026-04-20 20:43 | 27.23802 | -102.15759 | 39105 ft | 508 kts | 119° |
| 2026-04-20 20:43 | 27.20860 | -102.08557 | 39114 ft | 508 kts | 119° |
| 2026-04-20 20:44 | 27.17902 | -102.01327 | 39122 ft | 508 kts | 119° |
| 2026-04-20 20:44 | 27.14957 | -101.94139 | 39130 ft | 506 kts | 119° |
| 2026-04-20 20:45 | 27.12000 | -101.86941 | 39139 ft | 509 kts | 119° |
| 2026-04-20 20:45 | 27.09042 | -101.79747 | 39161 ft | 509 kts | 119° |
| 2026-04-20 20:46 | 27.06080 | -101.72559 | 39173 ft | 508 kts | 119° |
| 2026-04-20 20:46 | 27.03104 | -101.65352 | 39205 ft | 510 kts | 119° |
| 2026-04-20 20:47 | 27.00110 | -101.58113 | 39229 ft | 512 kts | 119° |
| 2026-04-20 20:47 | 26.97143 | -101.50940 | 39218 ft | 509 kts | 119° |
| 2026-04-20 20:48 | 26.94374 | -101.43605 | 39220 ft | 513 kts | 114° |
| 2026-04-20 20:48 | 26.91949 | -101.36086 | 39218 ft | 512 kts | 114° |
| 2026-04-20 20:49 | 26.89518 | -101.28584 | 39203 ft | 512 kts | 114° |
| 2026-04-20 20:49 | 26.87073 | -101.21092 | 39188 ft | 512 kts | 114° |
| 2026-04-20 20:50 | 26.84620 | -101.13599 | 39174 ft | 512 kts | 114° |
| 2026-04-20 20:50 | 26.82166 | -101.06119 | 39165 ft | 512 kts | 114° |
| 2026-04-20 20:51 | 26.79705 | -100.98633 | 39174 ft | 512 kts | 114° |
| 2026-04-20 20:51 | 26.77240 | -100.91147 | 39175 ft | 512 kts | 114° |
| 2026-04-20 20:52 | 26.74961 | -100.84243 | 39178 ft | 512 kts | 114° |
| 2026-04-20 20:52 | 26.72490 | -100.76768 | 39179 ft | 512 kts | 114° |
| 2026-04-20 20:53 | 26.70026 | -100.69330 | 39180 ft | 512 kts | 114° |
| 2026-04-20 20:53 | 26.67542 | -100.61848 | 39184 ft | 513 kts | 114° |
| 2026-04-20 20:54 | 26.65469 | -100.55616 | 39190 ft | 513 kts | 114° |
| 2026-04-20 20:54 | 26.62975 | -100.48130 | 39186 ft | 513 kts | 114° |
| 2026-04-20 20:55 | 26.60479 | -100.40654 | 39192 ft | 514 kts | 114° |
| 2026-04-20 20:55 | 26.57979 | -100.33180 | 39193 ft | 514 kts | 114° |
| 2026-04-20 20:56 | 26.55473 | -100.25704 | 39196 ft | 514 kts | 114° |
| 2026-04-20 20:56 | 26.52787 | -100.18335 | 39196 ft | 511 kts | 118° |
| 2026-04-20 20:57 | 26.49919 | -100.11139 | 39195 ft | 511 kts | 118° |
| 2026-04-20 20:57 | 26.47038 | -100.03880 | 39195 ft | 511 kts | 118° |
| 2026-04-20 20:58 | 26.44161 | -99.96633 | 39197 ft | 510 kts | 118° |
| 2026-04-20 20:58 | 26.41279 | -99.89388 | 39192 ft | 510 kts | 118° |
| 2026-04-20 20:59 | 26.38398 | -99.82165 | 39191 ft | 510 kts | 118° |
| 2026-04-20 20:59 | 26.35510 | -99.74944 | 39190 ft | 509 kts | 118° |
| 2026-04-20 21:00 | 26.32618 | -99.67721 | 39192 ft | 509 kts | 118° |
| 2026-04-20 21:00 | 26.29727 | -99.60518 | 39190 ft | 509 kts | 118° |
| 2026-04-20 21:01 | 26.26853 | -99.53368 | 39188 ft | 508 kts | 118° |
| 2026-04-20 21:01 | 26.23959 | -99.46180 | 39191 ft | 508 kts | 118° |
| 2026-04-20 21:02 | 26.21062 | -99.38997 | 39190 ft | 508 kts | 118° |
| 2026-04-20 21:02 | 26.18163 | -99.31823 | 39193 ft | 508 kts | 118° |
| 2026-04-20 21:03 | 26.15264 | -99.24659 | 39187 ft | 507 kts | 118° |
| 2026-04-20 21:03 | 26.12354 | -99.17483 | 39186 ft | 507 kts | 118° |
| 2026-04-20 21:04 | 26.09466 | -99.10372 | 39190 ft | 507 kts | 118° |
| 2026-04-20 21:04 | 26.06560 | -99.03230 | 39187 ft | 507 kts | 118° |
| 2026-04-20 21:05 | 26.03645 | -98.96077 | 39188 ft | 507 kts | 118° |
| 2026-04-20 21:05 | 26.00734 | -98.88944 | 39183 ft | 507 kts | 118° |
| 2026-04-20 21:06 | 25.97813 | -98.81802 | 39184 ft | 507 kts | 118° |
| 2026-04-20 21:06 | 25.94896 | -98.74679 | 39183 ft | 507 kts | 118° |
| 2026-04-20 21:07 | 25.91993 | -98.67605 | 39184 ft | 507 kts | 118° |
| 2026-04-20 21:07 | 25.89059 | -98.60467 | 39180 ft | 507 kts | 118° |
| 2026-04-20 21:08 | 25.86128 | -98.53348 | 39177 ft | 507 kts | 118° |
| 2026-04-20 21:08 | 25.83192 | -98.46226 | 39176 ft | 507 kts | 118° |
| 2026-04-20 21:09 | 25.80251 | -98.39107 | 39172 ft | 507 kts | 118° |
| 2026-04-20 21:09 | 25.77305 | -98.31988 | 39171 ft | 507 kts | 118° |
| 2026-04-20 21:10 | 25.74355 | -98.24869 | 39169 ft | 508 kts | 119° |
| 2026-04-20 21:10 | 25.71403 | -98.17758 | 39184 ft | 508 kts | 119° |
| 2026-04-20 21:11 | 25.68465 | -98.10692 | 39180 ft | 508 kts | 119° |
| 2026-04-20 21:11 | 25.65501 | -98.03575 | 39177 ft | 508 kts | 119° |
| 2026-04-20 21:12 | 25.62531 | -97.96457 | 39171 ft | 508 kts | 119° |
| 2026-04-20 21:12 | 25.59563 | -97.89355 | 39172 ft | 508 kts | 119° |
| 2026-04-20 21:13 | 25.56589 | -97.82250 | 39175 ft | 508 kts | 119° |
| 2026-04-20 21:13 | 25.53618 | -97.75164 | 39174 ft | 508 kts | 119° |
| 2026-04-20 21:14 | 25.50638 | -97.68069 | 39178 ft | 508 kts | 119° |
| 2026-04-20 21:14 | 25.47661 | -97.60991 | 39176 ft | 508 kts | 119° |
| 2026-04-20 21:15 | 25.44674 | -97.53904 | 39173 ft | 508 kts | 119° |
| 2026-04-20 21:15 | 25.41683 | -97.46817 | 39171 ft | 508 kts | 119° |
| 2026-04-20 21:16 | 25.38688 | -97.39731 | 39167 ft | 508 kts | 119° |
| 2026-04-20 21:16 | 25.35715 | -97.32709 | 39167 ft | 507 kts | 120° |
| 2026-04-20 21:17 | 25.32721 | -97.25648 | 39162 ft | 507 kts | 120° |
| 2026-04-20 21:17 | 25.29720 | -97.18585 | 39160 ft | 507 kts | 120° |
| 2026-04-20 21:18 | 25.26721 | -97.11534 | 39156 ft | 507 kts | 120° |
| 2026-04-20 21:18 | 25.23721 | -97.04494 | 39151 ft | 507 kts | 120° |
| 2026-04-20 21:19 | 25.20711 | -96.97444 | 39149 ft | 507 kts | 120° |
| 2026-04-20 21:20 | 25.16194 | -96.86880 | 39154 ft | 507 kts | 120° |
| 2026-04-20 21:20 | 25.13197 | -96.79888 | 39147 ft | 507 kts | 120° |
| 2026-04-20 21:21 | 25.10179 | -96.72855 | 39146 ft | 507 kts | 120° |
| 2026-04-20 21:21 | 25.07157 | -96.65826 | 39146 ft | 507 kts | 120° |
| 2026-04-20 21:22 | 25.04128 | -96.58792 | 39142 ft | 507 kts | 120° |
| 2026-04-20 21:22 | 25.01097 | -96.51763 | 39142 ft | 508 kts | 120° |
| 2026-04-20 21:23 | 24.98057 | -96.44726 | 39142 ft | 508 kts | 120° |
| 2026-04-20 21:23 | 24.95003 | -96.37666 | 39151 ft | 509 kts | 120° |
| 2026-04-20 21:24 | 24.91973 | -96.30674 | 39142 ft | 509 kts | 121° |
| 2026-04-20 21:24 | 24.88910 | -96.23617 | 39146 ft | 511 kts | 121° |
| 2026-04-20 21:25 | 24.85845 | -96.16565 | 39147 ft | 511 kts | 121° |
| 2026-04-20 21:25 | 24.82776 | -96.09516 | 39141 ft | 511 kts | 121° |
| 2026-04-20 21:26 | 24.79693 | -96.02448 | 39133 ft | 511 kts | 121° |
| 2026-04-20 21:26 | 24.76613 | -95.95394 | 39127 ft | 511 kts | 121° |
| 2026-04-20 21:27 | 24.73526 | -95.88338 | 39131 ft | 512 kts | 121° |
| 2026-04-20 21:27 | 24.70453 | -95.81325 | 39133 ft | 512 kts | 121° |
| 2026-04-20 21:28 | 24.67365 | -95.74288 | 39133 ft | 512 kts | 121° |
| 2026-04-20 21:28 | 24.64260 | -95.67223 | 39136 ft | 512 kts | 121° |
| 2026-04-20 21:29 | 24.61155 | -95.60169 | 39140 ft | 513 kts | 121° |
| 2026-04-20 21:29 | 24.58046 | -95.53115 | 39142 ft | 513 kts | 121° |
| 2026-04-20 21:30 | 24.54927 | -95.46053 | 39142 ft | 513 kts | 121° |
| 2026-04-20 21:30 | 24.51811 | -95.39006 | 39140 ft | 513 kts | 121° |
| 2026-04-20 21:31 | 24.48687 | -95.31954 | 39145 ft | 513 kts | 121° |
| 2026-04-20 21:31 | 24.45567 | -95.24920 | 39142 ft | 513 kts | 121° |
| 2026-04-20 21:32 | 24.42443 | -95.17890 | 39144 ft | 512 kts | 121° |
| 2026-04-20 21:32 | 24.39314 | -95.10857 | 39139 ft | 512 kts | 121° |
| 2026-04-20 21:33 | 24.36201 | -95.03873 | 39139 ft | 512 kts | 121° |
| 2026-04-20 21:33 | 24.33071 | -94.96860 | 39140 ft | 512 kts | 121° |
| 2026-04-20 21:34 | 24.29937 | -94.89849 | 39137 ft | 512 kts | 121° |
| 2026-04-20 21:34 | 24.26800 | -94.82841 | 39139 ft | 511 kts | 121° |
| 2026-04-20 21:35 | 24.23665 | -94.75848 | 39134 ft | 511 kts | 121° |
| 2026-04-20 21:35 | 24.20526 | -94.68849 | 39137 ft | 511 kts | 121° |
| 2026-04-20 21:36 | 24.17388 | -94.61863 | 39133 ft | 511 kts | 121° |
| 2026-04-20 21:36 | 24.14272 | -94.54872 | 39132 ft | 512 kts | 119° |
| 2026-04-20 21:37 | 24.11600 | -94.47667 | 39130 ft | 515 kts | 116° |
| 2026-04-20 21:37 | 24.08963 | -94.40368 | 39131 ft | 515 kts | 116° |
| 2026-04-20 21:38 | 24.06269 | -94.33103 | 39130 ft | 515 kts | 117° |
| 2026-04-20 21:38 | 24.03550 | -94.25843 | 39127 ft | 515 kts | 117° |
| 2026-04-20 21:39 | 24.00847 | -94.18639 | 39131 ft | 515 kts | 117° |
| 2026-04-20 21:39 | 23.98122 | -94.11388 | 39133 ft | 515 kts | 117° |
| 2026-04-20 21:40 | 23.95397 | -94.04147 | 39132 ft | 515 kts | 117° |
| 2026-04-20 21:40 | 23.92664 | -93.96899 | 39138 ft | 516 kts | 117° |
| 2026-04-20 21:41 | 23.89928 | -93.89653 | 39133 ft | 516 kts | 117° |
| 2026-04-20 21:41 | 23.87186 | -93.82405 | 39135 ft | 516 kts | 117° |
| 2026-04-20 21:42 | 23.84898 | -93.76370 | 39133 ft | 516 kts | 117° |
| 2026-04-20 21:42 | 23.82150 | -93.69126 | 39136 ft | 516 kts | 117° |
| 2026-04-20 21:43 | 23.79400 | -93.61887 | 39134 ft | 516 kts | 117° |
| 2026-04-20 21:43 | 23.76662 | -93.54694 | 39132 ft | 516 kts | 117° |
| 2026-04-20 21:44 | 23.73902 | -93.47455 | 39133 ft | 516 kts | 116° |
| 2026-04-20 21:44 | 23.71142 | -93.40231 | 39132 ft | 516 kts | 116° |
| 2026-04-20 21:45 | 23.68373 | -93.32992 | 39132 ft | 516 kts | 116° |
| 2026-04-20 21:45 | 23.65625 | -93.25821 | 39132 ft | 516 kts | 116° |
| 2026-04-20 21:46 | 23.62853 | -93.18599 | 39126 ft | 516 kts | 116° |
| 2026-04-20 21:46 | 23.60081 | -93.11390 | 39128 ft | 516 kts | 116° |
| 2026-04-20 21:47 | 23.57306 | -93.04181 | 39126 ft | 516 kts | 116° |
| 2026-04-20 21:47 | 23.54526 | -92.96974 | 39123 ft | 515 kts | 116° |
| 2026-04-20 21:48 | 23.51739 | -92.89760 | 39123 ft | 515 kts | 116° |
| 2026-04-20 21:48 | 23.48967 | -92.82596 | 39121 ft | 515 kts | 116° |
| 2026-04-20 21:49 | 23.46178 | -92.75399 | 39123 ft | 515 kts | 116° |
| 2026-04-20 21:49 | 23.43388 | -92.68211 | 39122 ft | 515 kts | 116° |
| 2026-04-20 21:50 | 23.40602 | -92.61044 | 39119 ft | 514 kts | 116° |
| 2026-04-20 21:50 | 23.37807 | -92.53868 | 39116 ft | 514 kts | 116° |
| 2026-04-20 21:51 | 23.35031 | -92.46749 | 39117 ft | 514 kts | 116° |
| 2026-04-20 21:51 | 23.32237 | -92.39598 | 39115 ft | 514 kts | 116° |
| 2026-04-20 21:52 | 23.29437 | -92.32440 | 39113 ft | 513 kts | 116° |
| 2026-04-20 21:52 | 23.26632 | -92.25284 | 39111 ft | 513 kts | 116° |
| 2026-04-20 21:53 | 23.23827 | -92.18137 | 39104 ft | 513 kts | 116° |
| 2026-04-20 21:53 | 23.21040 | -92.11047 | 39109 ft | 513 kts | 116° |
| 2026-04-20 21:54 | 23.18230 | -92.03910 | 39107 ft | 513 kts | 116° |
| 2026-04-20 21:54 | 23.15423 | -91.96791 | 39102 ft | 513 kts | 116° |
| 2026-04-20 21:55 | 23.12612 | -91.89668 | 39102 ft | 512 kts | 116° |
| 2026-04-20 21:55 | 23.09796 | -91.82549 | 39102 ft | 512 kts | 116° |
| 2026-04-20 21:56 | 23.06983 | -91.75445 | 39101 ft | 512 kts | 116° |
| 2026-04-20 21:56 | 23.04162 | -91.68331 | 39104 ft | 512 kts | 117° |
| 2026-04-20 21:57 | 23.01340 | -91.61225 | 39104 ft | 512 kts | 117° |
| 2026-04-20 21:57 | 22.98532 | -91.54165 | 39098 ft | 512 kts | 117° |
| 2026-04-20 21:58 | 22.95709 | -91.47079 | 39099 ft | 512 kts | 117° |
| 2026-04-20 21:58 | 22.92877 | -91.39989 | 39100 ft | 512 kts | 117° |
| 2026-04-20 21:59 | 22.90044 | -91.32908 | 39098 ft | 512 kts | 117° |
| 2026-04-20 21:59 | 22.87208 | -91.25829 | 39096 ft | 512 kts | 117° |
| 2026-04-20 22:00 | 22.84384 | -91.18791 | 39099 ft | 511 kts | 117° |
| 2026-04-20 22:00 | 22.81543 | -91.11724 | 39097 ft | 511 kts | 117° |
| 2026-04-20 22:01 | 22.78696 | -91.04651 | 39096 ft | 511 kts | 117° |
| 2026-04-20 22:01 | 22.75848 | -90.97584 | 39102 ft | 511 kts | 117° |
| 2026-04-20 22:02 | 22.72996 | -90.90521 | 39097 ft | 511 kts | 117° |
| 2026-04-20 22:02 | 22.70162 | -90.83512 | 39088 ft | 511 kts | 117° |
| 2026-04-20 22:03 | 22.67304 | -90.76453 | 39088 ft | 511 kts | 117° |
| 2026-04-20 22:03 | 22.64448 | -90.69410 | 39089 ft | 511 kts | 117° |
| 2026-04-20 22:04 | 22.61587 | -90.62366 | 39086 ft | 511 kts | 117° |
| 2026-04-20 22:04 | 22.58722 | -90.55322 | 39085 ft | 511 kts | 117° |
| 2026-04-20 22:05 | 22.55854 | -90.48281 | 39086 ft | 511 kts | 117° |
| 2026-04-20 22:05 | 22.53053 | -90.41214 | 39081 ft | 513 kts | 112° |
| 2026-04-20 22:06 | 22.51265 | -90.33735 | 39083 ft | 516 kts | 100° |
| 2026-04-20 22:06 | 22.50135 | -90.26067 | 39082 ft | 516 kts | 101° |
| 2026-04-20 22:07 | 22.48979 | -90.18403 | 39084 ft | 516 kts | 101° |
| 2026-04-20 22:07 | 22.47824 | -90.10787 | 39087 ft | 516 kts | 101° |
| 2026-04-20 22:08 | 22.46657 | -90.03109 | 39085 ft | 516 kts | 101° |
| 2026-04-20 22:08 | 22.45489 | -89.95450 | 39081 ft | 517 kts | 101° |
| 2026-04-20 22:09 | 22.44314 | -89.87772 | 39087 ft | 517 kts | 101° |
| 2026-04-20 22:09 | 22.43138 | -89.80111 | 39083 ft | 517 kts | 101° |
| 2026-04-20 22:10 | 22.41959 | -89.72454 | 39081 ft | 517 kts | 101° |
| 2026-04-20 22:10 | 22.40777 | -89.64802 | 39084 ft | 517 kts | 101° |
| 2026-04-20 22:11 | 22.39598 | -89.57189 | 39084 ft | 516 kts | 101° |
| 2026-04-20 22:11 | 22.38408 | -89.49535 | 39086 ft | 516 kts | 101° |
| 2026-04-20 22:12 | 22.37214 | -89.41883 | 39087 ft | 516 kts | 101° |
| 2026-04-20 22:12 | 22.36018 | -89.34241 | 39088 ft | 516 kts | 101° |
| 2026-04-20 22:13 | 22.34819 | -89.26602 | 39078 ft | 515 kts | 101° |
| 2026-04-20 22:13 | 22.34219 | -89.22782 | 38844 ft | 512 kts | 101° |
| 2026-04-20 22:13 | 22.33621 | -89.18990 | 38284 ft | 511 kts | 101° |
| 2026-04-20 22:13 | 22.33027 | -89.15221 | 37796 ft | 506 kts | 101° |
| 2026-04-20 22:14 | 22.32437 | -89.11488 | 37271 ft | 502 kts | 101° |
| 2026-04-20 22:14 | 22.31850 | -89.07781 | 36741 ft | 499 kts | 101° |
| 2026-04-20 22:14 | 22.31266 | -89.04098 | 36229 ft | 495 kts | 101° |
| 2026-04-20 22:14 | 22.30687 | -89.00451 | 35739 ft | 491 kts | 101° |
| 2026-04-20 22:15 | 22.30111 | -88.96828 | 35250 ft | 488 kts | 101° |
| 2026-04-20 22:15 | 22.29537 | -88.93226 | 34770 ft | 485 kts | 101° |
| 2026-04-20 22:15 | 22.28967 | -88.89654 | 34306 ft | 481 kts | 101° |
| 2026-04-20 22:15 | 22.28408 | -88.86153 | 33817 ft | 478 kts | 101° |
| 2026-04-20 22:16 | 22.27844 | -88.82629 | 33331 ft | 474 kts | 101° |
| 2026-04-20 22:16 | 22.27285 | -88.79133 | 32849 ft | 470 kts | 101° |
| 2026-04-20 22:16 | 22.26728 | -88.75664 | 32376 ft | 466 kts | 101° |
| 2026-04-20 22:16 | 22.26177 | -88.72232 | 31916 ft | 462 kts | 101° |
| 2026-04-20 22:17 | 22.25628 | -88.68818 | 31459 ft | 459 kts | 101° |
| 2026-04-20 22:17 | 22.25084 | -88.65443 | 31013 ft | 455 kts | 101° |
| 2026-04-20 22:17 | 22.24542 | -88.62082 | 30565 ft | 452 kts | 101° |
| 2026-04-20 22:17 | 22.24012 | -88.58796 | 30144 ft | 448 kts | 101° |
| 2026-04-20 22:18 | 22.23478 | -88.55495 | 29663 ft | 444 kts | 101° |
| 2026-04-20 22:18 | 22.22949 | -88.52231 | 29208 ft | 440 kts | 101° |
| 2026-04-20 22:18 | 22.22423 | -88.48992 | 28756 ft | 436 kts | 101° |
| 2026-04-20 22:18 | 22.21902 | -88.45785 | 28313 ft | 431 kts | 101° |
| 2026-04-20 22:19 | 22.21387 | -88.42615 | 27874 ft | 427 kts | 101° |
| 2026-04-20 22:19 | 22.20875 | -88.39473 | 27436 ft | 423 kts | 101° |
| 2026-04-20 22:19 | 22.20368 | -88.36360 | 27009 ft | 419 kts | 101° |
| 2026-04-20 22:19 | 22.19863 | -88.33271 | 26587 ft | 416 kts | 101° |
| 2026-04-20 22:20 | 22.19363 | -88.30211 | 26172 ft | 412 kts | 101° |
| 2026-04-20 22:20 | 22.18866 | -88.27177 | 25764 ft | 408 kts | 100° |
| 2026-04-20 22:20 | 22.18373 | -88.24172 | 25362 ft | 405 kts | 100° |
| 2026-04-20 22:20 | 22.17885 | -88.21194 | 24965 ft | 401 kts | 100° |
| 2026-04-20 22:21 | 22.17398 | -88.18234 | 24572 ft | 398 kts | 100° |
| 2026-04-20 22:21 | 22.16917 | -88.15308 | 24191 ft | 395 kts | 100° |
| 2026-04-20 22:21 | 22.16439 | -88.12406 | 23893 ft | 389 kts | 100° |
| 2026-04-20 22:21 | 22.15968 | -88.09549 | 23777 ft | 388 kts | 100° |
| 2026-04-20 22:22 | 22.15494 | -88.06671 | 23678 ft | 405 kts | 100° |
| 2026-04-20 22:22 | 22.14986 | -88.03599 | 23560 ft | 427 kts | 100° |
| 2026-04-20 22:22 | 22.14458 | -88.00397 | 23511 ft | 435 kts | 100° |
| 2026-04-20 22:22 | 22.13842 | -87.97220 | 23408 ft | 431 kts | 108° |
| 2026-04-20 22:23 | 22.12618 | -87.94302 | 23146 ft | 425 kts | 124° |
| 2026-04-20 22:23 | 22.10749 | -87.91862 | 23081 ft | 422 kts | 139° |
| 2026-04-20 22:23 | 22.08571 | -87.89721 | 23079 ft | 424 kts | 140° |
| 2026-04-20 22:23 | 22.06390 | -87.87574 | 23076 ft | 424 kts | 140° |
| 2026-04-20 22:24 | 22.04215 | -87.85428 | 23075 ft | 423 kts | 140° |
| 2026-04-20 22:24 | 22.02071 | -87.83309 | 23075 ft | 423 kts | 140° |
| 2026-04-20 22:24 | 21.99899 | -87.81163 | 23076 ft | 423 kts | 140° |
| 2026-04-20 22:24 | 21.97726 | -87.79016 | 23079 ft | 423 kts | 140° |
| 2026-04-20 22:25 | 21.95557 | -87.76874 | 23075 ft | 423 kts | 140° |
| 2026-04-20 22:25 | 21.93395 | -87.74741 | 22894 ft | 420 kts | 140° |
| 2026-04-20 22:25 | 21.91247 | -87.72622 | 22478 ft | 417 kts | 139° |
| 2026-04-20 22:25 | 21.89118 | -87.70523 | 22025 ft | 413 kts | 139° |
| 2026-04-20 22:26 | 21.87009 | -87.68445 | 21521 ft | 409 kts | 139° |
| 2026-04-20 22:26 | 21.84922 | -87.66389 | 21029 ft | 404 kts | 139° |
| 2026-04-20 22:26 | 21.82855 | -87.64354 | 20525 ft | 401 kts | 139° |
| 2026-04-20 22:27 | 21.78729 | -87.60297 | 19171 ft | 403 kts | 139° |
| 2026-04-20 22:27 | 21.76656 | -87.58257 | 18496 ft | 404 kts | 139° |
| 2026-04-20 22:27 | 21.74580 | -87.56215 | 17756 ft | 405 kts | 139° |
| 2026-04-20 22:27 | 21.72508 | -87.54188 | 16989 ft | 398 kts | 138° |
| 2026-04-20 22:28 | 21.70485 | -87.52205 | 16259 ft | 389 kts | 138° |
| 2026-04-20 22:28 | 21.68500 | -87.50259 | 15418 ft | 384 kts | 137° |
| 2026-04-20 22:28 | 21.66524 | -87.48322 | 14505 ft | 383 kts | 137° |
| 2026-04-20 22:28 | 21.65228 | -87.47049 | 13920 ft | 382 kts | 137° |
| 2026-04-20 22:29 | 21.62522 | -87.44594 | 12562 ft | 379 kts | 141° |
| 2026-04-20 22:29 | 21.61162 | -87.43429 | 11984 ft | 375 kts | 141° |
| 2026-04-20 22:29 | 21.59165 | -87.41717 | 11615 ft | 356 kts | 141° |
| 2026-04-20 22:29 | 21.57271 | -87.40093 | 11090 ft | 344 kts | 141° |
| 2026-04-20 22:30 | 21.55374 | -87.38466 | 9928 ft | 353 kts | 141° |
| 2026-04-20 22:30 | 21.52775 | -87.36241 | 7917 ft | 370 kts | 141° |
| 2026-04-20 22:30 | 21.51398 | -87.35063 | 7010 ft | 376 kts | 141° |
| 2026-04-20 22:30 | 21.49382 | -87.33339 | 6402 ft | 361 kts | 141° |
| 2026-04-20 22:31 | 21.47479 | -87.31713 | 6029 ft | 340 kts | 141° |
| 2026-04-20 22:31 | 21.45664 | -87.30163 | 5538 ft | 326 kts | 140° |
| 2026-04-20 22:31 | 21.43922 | -87.28674 | 5057 ft | 314 kts | 140° |
| 2026-04-20 22:31 | 21.42239 | -87.27236 | 4568 ft | 304 kts | 140° |
| 2026-04-20 22:32 | 21.40607 | -87.25845 | 4162 ft | 292 kts | 139° |
| 2026-04-20 22:32 | 21.39085 | -87.24547 | 4021 ft | 273 kts | 139° |
| 2026-04-20 22:32 | 21.37573 | -87.23404 | 3993 ft | 253 kts | 147° |
| 2026-04-20 22:32 | 21.36058 | -87.22588 | 3999 ft | 236 kts | 150° |
| 2026-04-20 22:33 | 21.34629 | -87.21817 | 3994 ft | 223 kts | 150° |
| 2026-04-20 22:33 | 21.33276 | -87.21077 | 3761 ft | 221 kts | 149° |
| 2026-04-20 22:33 | 21.31887 | -87.20320 | 3469 ft | 220 kts | 150° |
| 2026-04-20 22:33 | 21.30532 | -87.19584 | 3264 ft | 216 kts | 149° |
| 2026-04-20 22:34 | 21.29166 | -87.18915 | 2909 ft | 221 kts | 156° |
| 2026-04-20 22:34 | 21.27717 | -87.18365 | 2698 ft | 218 kts | 157° |
| 2026-04-20 22:34 | 21.26308 | -87.17830 | 2583 ft | 209 kts | 156° |
| 2026-04-20 22:34 | 21.24991 | -87.17326 | 2470 ft | 196 kts | 155° |
| 2026-04-20 22:35 | 21.23700 | -87.16824 | 2218 ft | 196 kts | 156° |
| 2026-04-20 22:35 | 21.23366 | -87.16693 | 2174 ft | 194 kts | 156° |
| 2026-04-20 22:35 | 21.22182 | -87.16230 | 1997 ft | 191 kts | 154° |
| 2026-04-20 22:36 | 21.21059 | -87.15530 | 2004 ft | 187 kts | 129° |
| 2026-04-20 22:36 | 21.20304 | -87.14394 | 1999 ft | 187 kts | 118° |
| 2026-04-20 22:36 | 21.19601 | -87.13248 | 1998 ft | 186 kts | 118° |
| 2026-04-20 22:36 | 21.18877 | -87.12075 | 1999 ft | 187 kts | 118° |
| 2026-04-20 22:37 | 21.18173 | -87.10935 | 1991 ft | 179 kts | 118° |
| 2026-04-20 22:37 | 21.17522 | -87.09902 | 1995 ft | 162 kts | 119° |
| 2026-04-20 22:37 | 21.16880 | -87.08871 | 1996 ft | 166 kts | 118° |
| 2026-04-20 22:37 | 21.16236 | -87.07831 | 1995 ft | 165 kts | 118° |
| 2026-04-20 22:38 | 21.15597 | -87.06804 | 1998 ft | 166 kts | 118° |
| 2026-04-20 22:38 | 21.14965 | -87.05788 | 1995 ft | 162 kts | 117° |
| 2026-04-20 22:38 | 21.14345 | -87.04792 | 2000 ft | 163 kts | 117° |
| 2026-04-20 22:38 | 21.13708 | -87.03785 | 1999 ft | 164 kts | 120° |
| 2026-04-20 22:39 | 21.13051 | -87.02780 | 1997 ft | 164 kts | 119° |
| 2026-04-20 22:39 | 21.12416 | -87.01771 | 1995 ft | 163 kts | 117° |
| 2026-04-20 22:39 | 21.11786 | -87.00765 | 1999 ft | 163 kts | 117° |
| 2026-04-20 22:39 | 21.11158 | -86.99750 | 1996 ft | 163 kts | 117° |
| 2026-04-20 22:40 | 21.10527 | -86.98741 | 2001 ft | 163 kts | 117° |
| 2026-04-20 22:40 | 21.09894 | -86.97728 | 1917 ft | 164 kts | 117° |
| 2026-04-20 22:40 | 21.09269 | -86.96717 | 1708 ft | 162 kts | 117° |
| 2026-04-20 22:40 | 21.08643 | -86.95715 | 1487 ft | 162 kts | 117° |
| 2026-04-20 22:41 | 21.08012 | -86.94699 | 1282 ft | 166 kts | 118° |
| 2026-04-20 22:41 | 21.07371 | -86.93676 | 1062 ft | 165 kts | 119° |
| 2026-04-20 22:41 | 21.06745 | -86.92667 | 838 ft | 163 kts | 119° |
| 2026-04-20 22:41 | 21.06136 | -86.91702 | 682 ft | 145 kts | 120° |
| 2026-04-20 22:42 | 21.05576 | -86.90816 | 472 ft | 144 kts | 119° |
| 2026-04-20 22:42 | 21.05035 | -86.89933 | 291 ft | 139 kts | 120° |
| 2026-04-20 22:42 | 21.04515 | -86.89078 | 93 ft | 136 kts | 121° |
| 2026-04-20 22:42 | 21.04024 | -86.88300 | 43 ft | 117 kts | 121° |
| 2026-04-20 22:43 | 21.03569 | -86.87559 | 130 ft | 137 kts | 121° |
| 2026-04-20 22:43 | 21.02987 | -86.86654 | 634 ft | 162 kts | 120° |
| 2026-04-20 22:43 | 21.02291 | -86.85553 | 1168 ft | 197 kts | 117° |
| 2026-04-20 22:43 | 21.01509 | -86.84303 | 2048 ft | 206 kts | 122° |
| 2026-04-20 22:44 | 21.00336 | -86.83344 | 2644 ft | 223 kts | 155° |
| 2026-04-20 22:44 | 20.98784 | -86.83162 | 2898 ft | 229 kts | 187° |
| 2026-04-20 22:44 | 20.97243 | -86.83635 | 2994 ft | 232 kts | 199° |
| 2026-04-20 22:44 | 20.95718 | -86.84239 | 2994 ft | 232 kts | 199° |
| 2026-04-20 22:45 | 20.94195 | -86.84765 | 3004 ft | 231 kts | 194° |
| 2026-04-20 22:45 | 20.92636 | -86.85209 | 2998 ft | 232 kts | 192° |
| 2026-04-20 22:45 | 20.91088 | -86.85681 | 2986 ft | 232 kts | 206° |
| 2026-04-20 22:45 | 20.89894 | -86.86821 | 3000 ft | 234 kts | 240° |
| 2026-04-20 22:46 | 20.89348 | -86.88436 | 3000 ft | 233 kts | 261° |
| 2026-04-20 22:46 | 20.89091 | -86.90138 | 2989 ft | 230 kts | 264° |
| 2026-04-20 22:46 | 20.88834 | -86.91831 | 2996 ft | 231 kts | 261° |
| 2026-04-20 22:46 | 20.88513 | -86.93475 | 2996 ft | 228 kts | 259° |
| 2026-04-20 22:47 | 20.88130 | -86.95150 | 2997 ft | 230 kts | 260° |
| 2026-04-20 22:47 | 20.88189 | -86.96812 | 2998 ft | 223 kts | 294° |
| 2026-04-20 22:47 | 20.89075 | -86.98127 | 2999 ft | 218 kts | 328° |
| 2026-04-20 22:47 | 20.90377 | -86.98842 | 2995 ft | 212 kts | 339° |
| 2026-04-20 22:48 | 20.91746 | -86.99499 | 2998 ft | 215 kts | 338° |
| 2026-04-20 22:48 | 20.93088 | -87.00176 | 2963 ft | 212 kts | 337° |
| 2026-04-20 22:48 | 20.94391 | -87.00870 | 2768 ft | 211 kts | 336° |
| 2026-04-20 22:48 | 20.95682 | -87.01585 | 2568 ft | 208 kts | 336° |
| 2026-04-20 22:49 | 20.96984 | -87.02311 | 2189 ft | 212 kts | 335° |
| 2026-04-20 22:49 | 20.98275 | -87.03028 | 2036 ft | 206 kts | 335° |
| 2026-04-20 22:49 | 20.99551 | -87.03742 | 1997 ft | 212 kts | 336° |
| 2026-04-20 22:49 | 21.00852 | -87.04466 | 1998 ft | 210 kts | 335° |
| 2026-04-20 22:50 | 21.02162 | -87.05202 | 1997 ft | 213 kts | 336° |
| 2026-04-20 22:50 | 21.03468 | -87.05937 | 1997 ft | 208 kts | 335° |
| 2026-04-20 22:50 | 21.04693 | -87.06620 | 2007 ft | 188 kts | 336° |
| 2026-04-20 22:50 | 21.05845 | -87.07266 | 2004 ft | 196 kts | 336° |
| 2026-04-20 22:51 | 21.07062 | -87.07941 | 2000 ft | 194 kts | 335° |
| 2026-04-20 22:51 | 21.08237 | -87.08594 | 1997 ft | 189 kts | 336° |
| 2026-04-20 22:51 | 21.09426 | -87.09258 | 2000 ft | 194 kts | 336° |
| 2026-04-20 22:51 | 21.10640 | -87.09934 | 2001 ft | 195 kts | 336° |
| 2026-04-20 22:52 | 21.11814 | -87.10593 | 2001 ft | 187 kts | 335° |
| 2026-04-20 22:52 | 21.12892 | -87.11205 | 2000 ft | 162 kts | 336° |
| 2026-04-20 22:52 | 21.13889 | -87.11762 | 2001 ft | 165 kts | 338° |
| 2026-04-20 22:52 | 21.14901 | -87.12322 | 2008 ft | 165 kts | 338° |
| 2026-04-20 22:53 | 21.15891 | -87.12878 | 1999 ft | 157 kts | 336° |
| 2026-04-20 22:53 | 21.16913 | -87.13277 | 1993 ft | 153 kts | 2° |
| 2026-04-20 22:53 | 21.17884 | -87.12843 | 2002 ft | 158 kts | 46° |
| 2026-04-20 22:53 | 21.18252 | -87.11764 | 2000 ft | 161 kts | 89° |
| 2026-04-20 22:54 | 21.17834 | -87.10647 | 2003 ft | 163 kts | 116° |
| 2026-04-20 22:54 | 21.17236 | -87.09617 | 2000 ft | 163 kts | 117° |
| 2026-04-20 22:54 | 21.16632 | -87.08584 | 2000 ft | 163 kts | 117° |
| 2026-04-20 22:54 | 21.16049 | -87.07574 | 1995 ft | 154 kts | 116° |
| 2026-04-20 22:55 | 21.15510 | -87.06655 | 1996 ft | 142 kts | 116° |
| 2026-04-20 22:55 | 21.14963 | -87.05768 | 1999 ft | 143 kts | 117° |
| 2026-04-20 22:55 | 21.14407 | -87.04891 | 2003 ft | 142 kts | 118° |
| 2026-04-20 22:55 | 21.13840 | -87.04016 | 1999 ft | 143 kts | 119° |
| 2026-04-20 22:56 | 21.13271 | -87.03140 | 1998 ft | 143 kts | 117° |
| 2026-04-20 22:56 | 21.12726 | -87.02264 | 1939 ft | 139 kts | 117° |
| 2026-04-20 22:56 | 21.12188 | -87.01407 | 1638 ft | 138 kts | 117° |
| 2026-04-20 22:56 | 21.11651 | -87.00542 | 1376 ft | 143 kts | 118° |
| 2026-04-20 22:57 | 21.11089 | -86.99648 | 1317 ft | 145 kts | 119° |
| 2026-04-20 22:57 | 21.10533 | -86.98750 | 1270 ft | 145 kts | 118° |
| 2026-04-20 22:57 | 21.09970 | -86.97840 | 1288 ft | 146 kts | 119° |
| 2026-04-20 22:57 | 21.09412 | -86.96956 | 1299 ft | 143 kts | 119° |
| 2026-04-20 22:58 | 21.08860 | -86.96069 | 1288 ft | 143 kts | 118° |
| 2026-04-20 22:58 | 21.08301 | -86.95169 | 1295 ft | 146 kts | 118° |
| 2026-04-20 22:58 | 21.07733 | -86.94262 | 1204 ft | 147 kts | 119° |
| 2026-04-20 22:58 | 21.07166 | -86.93352 | 1012 ft | 152 kts | 118° |
| 2026-04-20 22:59 | 21.06584 | -86.92413 | 792 ft | 145 kts | 118° |
| 2026-04-20 22:59 | 21.06037 | -86.91527 | 605 ft | 139 kts | 120° |
| 2026-04-20 22:59 | 21.05488 | -86.90656 | 476 ft | 144 kts | 121° |
| 2026-04-20 22:59 | 21.04939 | -86.89764 | 258 ft | 140 kts | 121° |
| 2026-04-20 23:00 | 21.04418 | -86.88925 | 58 ft | 131 kts | 121° |
| 2026-04-20 23:00 | 21.03963 | -86.88186 | 38 ft | 98 kts | 124° |
| 2026-04-20 23:00 | 21.03686 | -86.87750 | 38 ft | 54 kts | 126° |
| 2026-04-20 23:00 | 21.03505 | -86.87452 | 38 ft | 36 kts | 123° |
| 2026-04-20 23:01 | 21.03402 | -86.87291 | 38 ft | 16 kts | 125° |
| 2026-04-20 23:01 | 21.03417 | -86.87212 | 38 ft | 11 kts | 34° |
| 2026-04-20 23:01 | 21.03451 | -86.87188 | 38 ft | 8 kts | 34° |
| 2026-04-20 23:01 | 21.03481 | -86.87167 | 34 ft | 3 kts | 34° |
| 2026-04-20 23:02 | 21.03515 | -86.87141 | 38 ft | 9 kts | 34° |
| 2026-04-20 23:02 | 21.03570 | -86.87088 | 38 ft | 10 kts | 45° |
| 2026-04-20 23:02 | 21.03621 | -86.87051 | 38 ft | 7 kts | 33° |
| 2026-04-20 23:02 | 21.03630 | -86.87045 | 38 ft | 0 kts | 33° |